AMX408 MMMX-KJFK
Flight info
| Callsign | AMX408 |
|---|---|
| Flight time | 3h 49m |
| Altitude | 37000 |
| Route | IKLAN2A IKLAN UT141 TAM UM575 CLONN M575 TBD DCT HRV Q56 CATLN Q64 SAWED Q108 SIE CAMRN4 |
| Aircraft | B789/H-SDE1E2E3FGHIJ2J3J4J5M1RWXY/LB1D1 |
Departure
| Time | 2026-05-09 04:42 |
|---|---|
| Airport | Mexico City Benito Juárez International Airport (MMMX) |
Arrival
| Time | 2026-05-09 08:32 |
|---|---|
| Airport | John F. Kennedy International Airport (KJFK) |
| Time | Latitude | Longitude | Altitude | Speed | Heading |
|---|---|---|---|---|---|
| 2026-05-09 03:58 | 19.42243 | -99.08138 | 7308 ft | 0 kts | 123° |
| 2026-05-09 04:30 | 19.42250 | -99.08148 | 7308 ft | 3 kts | 115° |
| 2026-05-09 04:30 | 19.42256 | -99.08168 | 7308 ft | 3 kts | 96° |
| 2026-05-09 04:30 | 19.42257 | -99.08189 | 7308 ft | 3 kts | 77° |
| 2026-05-09 04:30 | 19.42251 | -99.08209 | 7308 ft | 3 kts | 58° |
| 2026-05-09 04:31 | 19.42248 | -99.08214 | 7308 ft | 0 kts | 51° |
| 2026-05-09 04:35 | 19.42265 | -99.08204 | 7308 ft | 6 kts | 21° |
| 2026-05-09 04:35 | 19.42323 | -99.08201 | 7308 ft | 10 kts | 2° |
| 2026-05-09 04:35 | 19.42396 | -99.08212 | 7308 ft | 10 kts | 341° |
| 2026-05-09 04:35 | 19.42446 | -99.08242 | 7308 ft | 7 kts | 330° |
| 2026-05-09 04:36 | 19.42485 | -99.08266 | 7308 ft | 6 kts | 330° |
| 2026-05-09 04:36 | 19.42514 | -99.08284 | 7308 ft | 4 kts | 330° |
| 2026-05-09 04:36 | 19.42532 | -99.08296 | 7308 ft | 3 kts | 323° |
| 2026-05-09 04:36 | 19.42548 | -99.08315 | 7308 ft | 4 kts | 308° |
| 2026-05-09 04:37 | 19.42564 | -99.08343 | 7308 ft | 5 kts | 298° |
| 2026-05-09 04:37 | 19.42581 | -99.08379 | 7308 ft | 6 kts | 296° |
| 2026-05-09 04:37 | 19.42598 | -99.08420 | 7308 ft | 7 kts | 294° |
| 2026-05-09 04:37 | 19.42620 | -99.08473 | 7308 ft | 9 kts | 293° |
| 2026-05-09 04:38 | 19.42647 | -99.08540 | 7308 ft | 11 kts | 293° |
| 2026-05-09 04:38 | 19.42671 | -99.08616 | 7310 ft | 10 kts | 278° |
| 2026-05-09 04:38 | 19.42678 | -99.08696 | 7308 ft | 13 kts | 274° |
| 2026-05-09 04:38 | 19.42685 | -99.08799 | 7308 ft | 15 kts | 274° |
| 2026-05-09 04:39 | 19.42692 | -99.08914 | 7308 ft | 16 kts | 274° |
| 2026-05-09 04:39 | 19.42701 | -99.09028 | 7308 ft | 11 kts | 284° |
| 2026-05-09 04:39 | 19.42730 | -99.09056 | 7308 ft | 2 kts | 341° |
| 2026-05-09 04:39 | 19.42736 | -99.09055 | 7308 ft | 1 kts | 1° |
| 2026-05-09 04:40 | 19.42748 | -99.09048 | 7308 ft | 3 kts | 26° |
| 2026-05-09 04:40 | 19.42771 | -99.09027 | 7308 ft | 5 kts | 55° |
| 2026-05-09 04:40 | 19.42791 | -99.08991 | 7308 ft | 0 kts | 57° |
| 2026-05-09 04:40 | 19.42797 | -99.08982 | 7308 ft | 3 kts | 57° |
| 2026-05-09 04:41 | 19.42804 | -99.08968 | 7308 ft | 1 kts | 59° |
| 2026-05-09 04:41 | 19.42813 | -99.08952 | 7308 ft | 6 kts | 59° |
| 2026-05-09 04:41 | 19.42893 | -99.08811 | 7308 ft | 46 kts | 59° |
| 2026-05-09 04:41 | 19.43162 | -99.08330 | 7307 ft | 104 kts | 59° |
| 2026-05-09 04:42 | 19.43623 | -99.07510 | 7309 ft | 154 kts | 59° |
| 2026-05-09 04:42 | 19.44255 | -99.06385 | 7311 ft | 199 kts | 59° |
| 2026-05-09 04:42 | 19.45018 | -99.05050 | 7784 ft | 219 kts | 57° |
| 2026-05-09 04:42 | 19.45856 | -99.03644 | 8940 ft | 229 kts | 59° |
| 2026-05-09 04:43 | 19.46693 | -99.02124 | 9206 ft | 253 kts | 62° |
| 2026-05-09 04:43 | 19.47605 | -99.00405 | 9263 ft | 282 kts | 61° |
| 2026-05-09 04:43 | 19.48653 | -98.98534 | 9451 ft | 300 kts | 60° |
| 2026-05-09 04:43 | 19.49729 | -98.96651 | 10312 ft | 306 kts | 60° |
| 2026-05-09 04:44 | 19.50865 | -98.94622 | 10465 ft | 335 kts | 61° |
| 2026-05-09 04:44 | 19.52094 | -98.92413 | 10733 ft | 356 kts | 60° |
| 2026-05-09 04:44 | 19.52937 | -98.90922 | 11340 ft | 356 kts | 58° |
| 2026-05-09 04:44 | 19.54521 | -98.88869 | 12048 ft | 363 kts | 47° |
| 2026-05-09 04:45 | 19.56250 | -98.86898 | 12828 ft | 368 kts | 47° |
| 2026-05-09 04:45 | 19.57999 | -98.84890 | 13638 ft | 373 kts | 47° |
| 2026-05-09 04:45 | 19.59755 | -98.82856 | 14409 ft | 378 kts | 47° |
| 2026-05-09 04:45 | 19.61547 | -98.80784 | 15217 ft | 381 kts | 47° |
| 2026-05-09 04:46 | 19.63350 | -98.78704 | 15966 ft | 386 kts | 47° |
| 2026-05-09 04:46 | 19.65177 | -98.76596 | 16702 ft | 390 kts | 47° |
| 2026-05-09 04:46 | 19.67019 | -98.74466 | 17427 ft | 394 kts | 48° |
| 2026-05-09 04:46 | 19.68899 | -98.72330 | 18129 ft | 398 kts | 43° |
| 2026-05-09 04:47 | 19.71181 | -98.70667 | 18764 ft | 402 kts | 24° |
| 2026-05-09 04:47 | 19.73869 | -98.69826 | 19333 ft | 406 kts | 5° |
| 2026-05-09 04:47 | 19.76704 | -98.69582 | 19865 ft | 412 kts | 3° |
| 2026-05-09 04:47 | 19.79579 | -98.69402 | 20474 ft | 416 kts | 2° |
| 2026-05-09 04:48 | 19.82486 | -98.69232 | 21027 ft | 421 kts | 3° |
| 2026-05-09 04:48 | 19.85429 | -98.69031 | 21592 ft | 426 kts | 3° |
| 2026-05-09 04:48 | 19.88366 | -98.68821 | 22121 ft | 431 kts | 3° |
| 2026-05-09 04:48 | 19.91378 | -98.68618 | 22642 ft | 436 kts | 2° |
| 2026-05-09 04:49 | 19.94421 | -98.68587 | 23162 ft | 439 kts | 351° |
| 2026-05-09 04:49 | 19.97399 | -98.69304 | 23648 ft | 440 kts | 337° |
| 2026-05-09 04:49 | 20.00133 | -98.70744 | 24123 ft | 439 kts | 323° |
| 2026-05-09 04:49 | 20.02636 | -98.72614 | 24557 ft | 442 kts | 322° |
| 2026-05-09 04:50 | 20.05125 | -98.74537 | 25043 ft | 444 kts | 321° |
| 2026-05-09 04:50 | 20.07622 | -98.76495 | 25517 ft | 447 kts | 321° |
| 2026-05-09 04:50 | 20.10148 | -98.78451 | 25852 ft | 453 kts | 321° |
| 2026-05-09 04:50 | 20.12727 | -98.80431 | 25857 ft | 458 kts | 322° |
| 2026-05-09 04:51 | 20.15291 | -98.82407 | 25852 ft | 453 kts | 321° |
| 2026-05-09 04:51 | 20.17834 | -98.84400 | 26289 ft | 452 kts | 321° |
| 2026-05-09 04:51 | 20.20367 | -98.86391 | 26781 ft | 455 kts | 323° |
| 2026-05-09 04:51 | 20.23157 | -98.88005 | 27222 ft | 461 kts | 336° |
| 2026-05-09 04:52 | 20.26253 | -98.88977 | 27617 ft | 468 kts | 349° |
| 2026-05-09 04:52 | 20.29504 | -98.89241 | 28064 ft | 471 kts | 360° |
| 2026-05-09 04:52 | 20.32798 | -98.89219 | 28452 ft | 475 kts | 359° |
| 2026-05-09 04:52 | 20.36115 | -98.89170 | 28840 ft | 479 kts | 360° |
| 2026-05-09 04:53 | 20.39476 | -98.89062 | 28839 ft | 486 kts | 5° |
| 2026-05-09 04:53 | 20.42717 | -98.88381 | 28850 ft | 485 kts | 18° |
| 2026-05-09 04:53 | 20.45837 | -98.86979 | 29126 ft | 483 kts | 30° |
| 2026-05-09 04:53 | 20.48643 | -98.85020 | 29568 ft | 485 kts | 36° |
| 2026-05-09 04:54 | 20.51405 | -98.82929 | 29894 ft | 488 kts | 36° |
| 2026-05-09 04:54 | 20.54162 | -98.80801 | 30185 ft | 491 kts | 36° |
| 2026-05-09 04:54 | 20.56935 | -98.78649 | 30483 ft | 494 kts | 36° |
| 2026-05-09 04:54 | 20.59737 | -98.76495 | 30759 ft | 498 kts | 35° |
| 2026-05-09 04:55 | 20.62562 | -98.74333 | 31048 ft | 501 kts | 35° |
| 2026-05-09 04:55 | 20.65393 | -98.72153 | 31341 ft | 504 kts | 35° |
| 2026-05-09 04:55 | 20.68246 | -98.69948 | 31620 ft | 507 kts | 35° |
| 2026-05-09 04:55 | 20.71108 | -98.67740 | 31890 ft | 510 kts | 35° |
| 2026-05-09 04:56 | 20.73992 | -98.65520 | 32140 ft | 513 kts | 35° |
| 2026-05-09 04:56 | 20.76895 | -98.63282 | 32429 ft | 515 kts | 35° |
| 2026-05-09 04:56 | 20.79808 | -98.61030 | 32693 ft | 518 kts | 35° |
| 2026-05-09 04:56 | 20.82738 | -98.58767 | 32945 ft | 521 kts | 35° |
| 2026-05-09 04:57 | 20.85682 | -98.56492 | 33170 ft | 524 kts | 34° |
| 2026-05-09 04:57 | 20.88642 | -98.54205 | 33426 ft | 526 kts | 34° |
| 2026-05-09 04:57 | 20.91616 | -98.51904 | 33643 ft | 529 kts | 34° |
| 2026-05-09 04:57 | 20.94605 | -98.49591 | 33872 ft | 531 kts | 34° |
| 2026-05-09 04:58 | 20.97602 | -98.47270 | 34101 ft | 533 kts | 34° |
| 2026-05-09 04:58 | 21.00604 | -98.44944 | 34372 ft | 533 kts | 34° |
| 2026-05-09 04:58 | 21.03603 | -98.42620 | 34682 ft | 532 kts | 34° |
| 2026-05-09 04:58 | 21.06596 | -98.40299 | 35029 ft | 531 kts | 34° |
| 2026-05-09 04:59 | 21.09583 | -98.37981 | 35346 ft | 530 kts | 34° |
| 2026-05-09 04:59 | 21.12565 | -98.35666 | 35670 ft | 529 kts | 34° |
| 2026-05-09 04:59 | 21.15543 | -98.33354 | 35992 ft | 528 kts | 34° |
| 2026-05-09 04:59 | 21.18477 | -98.31074 | 36287 ft | 527 kts | 34° |
| 2026-05-09 05:00 | 21.21447 | -98.28765 | 36596 ft | 527 kts | 34° |
| 2026-05-09 05:00 | 21.24393 | -98.26423 | 36734 ft | 530 kts | 40° |
| 2026-05-09 05:00 | 21.27085 | -98.23701 | 36730 ft | 534 kts | 43° |
| 2026-05-09 05:01 | 21.32391 | -98.18166 | 36743 ft | 529 kts | 43° |
| 2026-05-09 05:01 | 21.37662 | -98.12668 | 36757 ft | 528 kts | 43° |
| 2026-05-09 05:02 | 21.42925 | -98.07182 | 36758 ft | 527 kts | 40° |
| 2026-05-09 05:02 | 21.45824 | -98.04803 | 36801 ft | 524 kts | 28° |
| 2026-05-09 05:02 | 21.49063 | -98.03050 | 36795 ft | 521 kts | 16° |
| 2026-05-09 05:03 | 21.56038 | -98.01237 | 36783 ft | 516 kts | 7° |
| 2026-05-09 05:03 | 21.63095 | -97.99790 | 36795 ft | 516 kts | 7° |
| 2026-05-09 05:04 | 21.70157 | -97.98358 | 36795 ft | 516 kts | 7° |
| 2026-05-09 05:04 | 21.77207 | -97.96912 | 36801 ft | 515 kts | 7° |
| 2026-05-09 05:05 | 21.84245 | -97.95478 | 36805 ft | 514 kts | 7° |
| 2026-05-09 05:05 | 21.91278 | -97.94036 | 36815 ft | 514 kts | 7° |
| 2026-05-09 05:06 | 21.98256 | -97.92609 | 36822 ft | 514 kts | 7° |
| 2026-05-09 05:06 | 22.05285 | -97.91167 | 36826 ft | 514 kts | 7° |
| 2026-05-09 05:07 | 22.12307 | -97.89726 | 36836 ft | 513 kts | 7° |
| 2026-05-09 05:07 | 22.19331 | -97.88283 | 36842 ft | 514 kts | 7° |
| 2026-05-09 05:08 | 22.26352 | -97.86808 | 36842 ft | 516 kts | 12° |
| 2026-05-09 05:08 | 22.29752 | -97.85518 | 36847 ft | 522 kts | 23° |
| 2026-05-09 05:08 | 22.32933 | -97.83598 | 36854 ft | 526 kts | 29° |
| 2026-05-09 05:09 | 22.39137 | -97.79378 | 36849 ft | 527 kts | 30° |
| 2026-05-09 05:09 | 22.45332 | -97.75140 | 36844 ft | 526 kts | 29° |
| 2026-05-09 05:10 | 22.51531 | -97.70918 | 36844 ft | 527 kts | 29° |
| 2026-05-09 05:10 | 22.57728 | -97.66673 | 36849 ft | 527 kts | 29° |
| 2026-05-09 05:11 | 22.63888 | -97.62463 | 36852 ft | 527 kts | 29° |
| 2026-05-09 05:11 | 22.70080 | -97.58217 | 36850 ft | 527 kts | 29° |
| 2026-05-09 05:12 | 22.76271 | -97.53973 | 36850 ft | 527 kts | 29° |
| 2026-05-09 05:12 | 22.82468 | -97.49716 | 36852 ft | 527 kts | 29° |
| 2026-05-09 05:13 | 22.88666 | -97.45456 | 36853 ft | 528 kts | 29° |
| 2026-05-09 05:13 | 22.94866 | -97.41189 | 36849 ft | 528 kts | 29° |
| 2026-05-09 05:14 | 23.01076 | -97.36911 | 36848 ft | 528 kts | 29° |
| 2026-05-09 05:14 | 23.07273 | -97.32636 | 36839 ft | 528 kts | 29° |
| 2026-05-09 05:15 | 23.13472 | -97.28357 | 36839 ft | 528 kts | 29° |
| 2026-05-09 05:15 | 23.19678 | -97.24069 | 36846 ft | 529 kts | 29° |
| 2026-05-09 05:16 | 23.25892 | -97.19774 | 36844 ft | 529 kts | 29° |
| 2026-05-09 05:16 | 23.32105 | -97.15473 | 36843 ft | 529 kts | 29° |
| 2026-05-09 05:17 | 23.38283 | -97.11191 | 36849 ft | 530 kts | 29° |
| 2026-05-09 05:17 | 23.44505 | -97.06875 | 36849 ft | 530 kts | 29° |
| 2026-05-09 05:18 | 23.50728 | -97.02553 | 36845 ft | 531 kts | 29° |
| 2026-05-09 05:18 | 23.56953 | -96.98224 | 36849 ft | 531 kts | 29° |
| 2026-05-09 05:19 | 23.63187 | -96.93884 | 36844 ft | 531 kts | 29° |
| 2026-05-09 05:19 | 23.69420 | -96.89540 | 36849 ft | 532 kts | 29° |
| 2026-05-09 05:20 | 23.75647 | -96.85190 | 36844 ft | 531 kts | 29° |
| 2026-05-09 05:20 | 23.81867 | -96.80837 | 36849 ft | 531 kts | 29° |
| 2026-05-09 05:21 | 23.88088 | -96.76481 | 36849 ft | 531 kts | 29° |
| 2026-05-09 05:21 | 23.94316 | -96.72114 | 36843 ft | 532 kts | 29° |
| 2026-05-09 05:22 | 24.00516 | -96.67762 | 36846 ft | 533 kts | 29° |
| 2026-05-09 05:22 | 24.06763 | -96.63371 | 36847 ft | 534 kts | 29° |
| 2026-05-09 05:23 | 24.13026 | -96.58969 | 36836 ft | 535 kts | 29° |
| 2026-05-09 05:23 | 24.19287 | -96.54561 | 36846 ft | 535 kts | 29° |
| 2026-05-09 05:24 | 24.25562 | -96.50139 | 36846 ft | 537 kts | 29° |
| 2026-05-09 05:24 | 24.31842 | -96.45706 | 36849 ft | 537 kts | 29° |
| 2026-05-09 05:25 | 24.38127 | -96.41266 | 36847 ft | 537 kts | 29° |
| 2026-05-09 05:25 | 24.47556 | -96.34595 | 36851 ft | 538 kts | 29° |
| 2026-05-09 05:26 | 24.53845 | -96.30139 | 36854 ft | 538 kts | 29° |
| 2026-05-09 05:26 | 24.60135 | -96.25675 | 36855 ft | 538 kts | 29° |
| 2026-05-09 05:27 | 24.66422 | -96.21210 | 36853 ft | 538 kts | 29° |
| 2026-05-09 05:27 | 24.72712 | -96.16736 | 36855 ft | 538 kts | 29° |
| 2026-05-09 05:28 | 24.78998 | -96.12260 | 36849 ft | 538 kts | 29° |
| 2026-05-09 05:28 | 24.85240 | -96.07809 | 36853 ft | 538 kts | 29° |
| 2026-05-09 05:29 | 24.91524 | -96.03323 | 36838 ft | 540 kts | 28° |
| 2026-05-09 05:29 | 24.97835 | -95.98814 | 36849 ft | 541 kts | 28° |
| 2026-05-09 05:30 | 25.04154 | -95.94291 | 36854 ft | 541 kts | 28° |
| 2026-05-09 05:30 | 25.10467 | -95.89769 | 36855 ft | 541 kts | 28° |
| 2026-05-09 05:31 | 25.16789 | -95.85234 | 36854 ft | 542 kts | 28° |
| 2026-05-09 05:31 | 25.23107 | -95.80696 | 36853 ft | 542 kts | 28° |
| 2026-05-09 05:32 | 25.29427 | -95.76151 | 36860 ft | 542 kts | 28° |
| 2026-05-09 05:32 | 25.35754 | -95.71595 | 36857 ft | 542 kts | 28° |
| 2026-05-09 05:33 | 25.42070 | -95.67042 | 36856 ft | 542 kts | 28° |
| 2026-05-09 05:33 | 25.48384 | -95.62484 | 36859 ft | 542 kts | 28° |
| 2026-05-09 05:34 | 25.54705 | -95.57915 | 36858 ft | 542 kts | 28° |
| 2026-05-09 05:34 | 25.59958 | -95.54114 | 36857 ft | 543 kts | 28° |
| 2026-05-09 05:35 | 25.64024 | -95.50847 | 36890 ft | 549 kts | 39° |
| 2026-05-09 05:35 | 25.65889 | -95.48865 | 36866 ft | 551 kts | 40° |
| 2026-05-09 05:35 | 25.72217 | -95.41869 | 36859 ft | 553 kts | 41° |
| 2026-05-09 05:36 | 25.76783 | -95.36835 | 36862 ft | 553 kts | 41° |
| 2026-05-09 05:36 | 25.82240 | -95.30809 | 36863 ft | 553 kts | 41° |
| 2026-05-09 05:37 | 25.87687 | -95.24773 | 36865 ft | 553 kts | 41° |
| 2026-05-09 05:37 | 25.93137 | -95.18738 | 36861 ft | 554 kts | 41° |
| 2026-05-09 05:38 | 25.98547 | -95.12728 | 36862 ft | 554 kts | 41° |
| 2026-05-09 05:38 | 26.03997 | -95.06673 | 36867 ft | 554 kts | 41° |
| 2026-05-09 05:39 | 26.09442 | -95.00611 | 36869 ft | 554 kts | 41° |
| 2026-05-09 05:39 | 26.14889 | -94.94541 | 36873 ft | 554 kts | 41° |
| 2026-05-09 05:40 | 26.20335 | -94.88462 | 36871 ft | 554 kts | 41° |
| 2026-05-09 05:40 | 26.25780 | -94.82375 | 36863 ft | 555 kts | 41° |
| 2026-05-09 05:41 | 26.31224 | -94.76282 | 36869 ft | 555 kts | 41° |
| 2026-05-09 05:41 | 26.36667 | -94.70180 | 36876 ft | 555 kts | 41° |
| 2026-05-09 05:42 | 26.42108 | -94.64073 | 36881 ft | 555 kts | 41° |
| 2026-05-09 05:42 | 26.47542 | -94.57964 | 36879 ft | 555 kts | 41° |
| 2026-05-09 05:43 | 26.52981 | -94.51842 | 36883 ft | 555 kts | 41° |
| 2026-05-09 05:43 | 26.58417 | -94.45714 | 36878 ft | 555 kts | 41° |
| 2026-05-09 05:44 | 26.63859 | -94.39571 | 36882 ft | 556 kts | 41° |
| 2026-05-09 05:44 | 26.69267 | -94.33456 | 36886 ft | 557 kts | 41° |
| 2026-05-09 05:45 | 26.74711 | -94.27293 | 36888 ft | 557 kts | 41° |
| 2026-05-09 05:45 | 26.80154 | -94.21121 | 36892 ft | 557 kts | 41° |
| 2026-05-09 05:46 | 26.85593 | -94.14945 | 36890 ft | 557 kts | 41° |
| 2026-05-09 05:46 | 26.91023 | -94.08771 | 36892 ft | 556 kts | 41° |
| 2026-05-09 05:47 | 26.96443 | -94.02599 | 36893 ft | 555 kts | 41° |
| 2026-05-09 05:47 | 27.01829 | -93.96457 | 36890 ft | 556 kts | 41° |
| 2026-05-09 05:48 | 27.07251 | -93.90264 | 36892 ft | 556 kts | 41° |
| 2026-05-09 05:48 | 27.12679 | -93.84058 | 36886 ft | 557 kts | 41° |
| 2026-05-09 05:49 | 27.18103 | -93.77849 | 36898 ft | 557 kts | 41° |
| 2026-05-09 05:49 | 27.23534 | -93.71621 | 36896 ft | 558 kts | 41° |
| 2026-05-09 05:50 | 27.28971 | -93.65378 | 36898 ft | 559 kts | 41° |
| 2026-05-09 05:50 | 27.34406 | -93.59127 | 36905 ft | 558 kts | 41° |
| 2026-05-09 05:51 | 27.39836 | -93.52874 | 36907 ft | 559 kts | 41° |
| 2026-05-09 05:51 | 27.45264 | -93.46612 | 36910 ft | 559 kts | 41° |
| 2026-05-09 05:52 | 27.50693 | -93.40342 | 36908 ft | 559 kts | 41° |
| 2026-05-09 05:52 | 27.56113 | -93.34070 | 36904 ft | 559 kts | 41° |
| 2026-05-09 05:53 | 27.61531 | -93.27793 | 36909 ft | 558 kts | 41° |
| 2026-05-09 05:53 | 27.66907 | -93.21554 | 36910 ft | 559 kts | 41° |
| 2026-05-09 05:54 | 27.72320 | -93.15265 | 36909 ft | 559 kts | 41° |
| 2026-05-09 05:54 | 27.77739 | -93.08963 | 36905 ft | 559 kts | 41° |
| 2026-05-09 05:55 | 27.83151 | -93.02656 | 36910 ft | 560 kts | 41° |
| 2026-05-09 05:55 | 27.88576 | -92.96326 | 36915 ft | 561 kts | 41° |
| 2026-05-09 05:56 | 27.94001 | -92.89985 | 36917 ft | 561 kts | 41° |
| 2026-05-09 05:56 | 27.99421 | -92.83641 | 36919 ft | 561 kts | 41° |
| 2026-05-09 05:57 | 28.04843 | -92.77285 | 36912 ft | 561 kts | 41° |
| 2026-05-09 05:57 | 28.10263 | -92.70921 | 36913 ft | 561 kts | 41° |
| 2026-05-09 05:58 | 28.15677 | -92.64547 | 36911 ft | 561 kts | 41° |
| 2026-05-09 05:58 | 28.21049 | -92.58208 | 36921 ft | 561 kts | 41° |
| 2026-05-09 05:59 | 28.26455 | -92.51824 | 36923 ft | 561 kts | 41° |
| 2026-05-09 05:59 | 28.31851 | -92.45442 | 36908 ft | 561 kts | 41° |
| 2026-05-09 06:00 | 28.37252 | -92.39045 | 36918 ft | 561 kts | 41° |
| 2026-05-09 06:00 | 28.42656 | -92.32633 | 36915 ft | 563 kts | 41° |
| 2026-05-09 06:01 | 28.48070 | -92.26199 | 36922 ft | 564 kts | 41° |
| 2026-05-09 06:01 | 28.53489 | -92.19749 | 36927 ft | 563 kts | 41° |
| 2026-05-09 06:02 | 28.58894 | -92.13307 | 36929 ft | 563 kts | 41° |
| 2026-05-09 06:02 | 28.64295 | -92.06858 | 36931 ft | 563 kts | 41° |
| 2026-05-09 06:03 | 28.69702 | -92.00391 | 36928 ft | 564 kts | 41° |
| 2026-05-09 06:03 | 28.75109 | -91.93915 | 36927 ft | 563 kts | 41° |
| 2026-05-09 06:04 | 28.80510 | -91.87435 | 36931 ft | 563 kts | 41° |
| 2026-05-09 06:04 | 28.85903 | -91.80954 | 36932 ft | 563 kts | 41° |
| 2026-05-09 06:05 | 28.91257 | -91.74510 | 36929 ft | 563 kts | 41° |
| 2026-05-09 06:05 | 28.96643 | -91.68016 | 36932 ft | 563 kts | 41° |
| 2026-05-09 06:06 | 29.02026 | -91.61517 | 36939 ft | 563 kts | 41° |
| 2026-05-09 06:06 | 29.07413 | -91.55001 | 36934 ft | 564 kts | 41° |
| 2026-05-09 06:07 | 29.12798 | -91.48478 | 36944 ft | 564 kts | 41° |
| 2026-05-09 06:07 | 29.18183 | -91.41945 | 36944 ft | 564 kts | 41° |
| 2026-05-09 06:08 | 29.23564 | -91.35403 | 36946 ft | 563 kts | 41° |
| 2026-05-09 06:08 | 29.28930 | -91.28871 | 36949 ft | 563 kts | 41° |
| 2026-05-09 06:09 | 29.34293 | -91.22331 | 36952 ft | 564 kts | 41° |
| 2026-05-09 06:09 | 29.39655 | -91.15782 | 36955 ft | 563 kts | 41° |
| 2026-05-09 06:10 | 29.45012 | -91.09228 | 36953 ft | 563 kts | 41° |
| 2026-05-09 06:10 | 29.50331 | -91.02710 | 36955 ft | 563 kts | 41° |
| 2026-05-09 06:11 | 29.55686 | -90.96137 | 36958 ft | 564 kts | 41° |
| 2026-05-09 06:11 | 29.61049 | -90.89542 | 36953 ft | 564 kts | 41° |
| 2026-05-09 06:12 | 29.65835 | -90.82357 | 36973 ft | 575 kts | 60° |
| 2026-05-09 06:12 | 29.67443 | -90.78122 | 36988 ft | 579 kts | 71° |
| 2026-05-09 06:12 | 29.68545 | -90.73655 | 36960 ft | 581 kts | 74° |
| 2026-05-09 06:13 | 29.70593 | -90.64655 | 36948 ft | 581 kts | 75° |
| 2026-05-09 06:13 | 29.72624 | -90.55664 | 36953 ft | 580 kts | 74° |
| 2026-05-09 06:14 | 29.74662 | -90.46672 | 36959 ft | 580 kts | 75° |
| 2026-05-09 06:14 | 29.76681 | -90.37671 | 36970 ft | 581 kts | 74° |
| 2026-05-09 06:15 | 29.78703 | -90.28678 | 36977 ft | 581 kts | 75° |
| 2026-05-09 06:15 | 29.80702 | -90.19721 | 36977 ft | 581 kts | 75° |
| 2026-05-09 06:16 | 29.82716 | -90.10689 | 36983 ft | 582 kts | 75° |
| 2026-05-09 06:16 | 29.84843 | -90.01703 | 36998 ft | 580 kts | 65° |
| 2026-05-09 06:17 | 29.86562 | -89.97520 | 37008 ft | 575 kts | 54° |
| 2026-05-09 06:17 | 29.88645 | -89.93591 | 36985 ft | 575 kts | 54° |
| 2026-05-09 06:17 | 29.92904 | -89.85798 | 36976 ft | 574 kts | 53° |
| 2026-05-09 06:18 | 29.97128 | -89.77968 | 36986 ft | 575 kts | 54° |
| 2026-05-09 06:18 | 30.01357 | -89.70150 | 36962 ft | 574 kts | 53° |
| 2026-05-09 06:19 | 30.05578 | -89.62321 | 36945 ft | 575 kts | 54° |
| 2026-05-09 06:19 | 30.09795 | -89.54483 | 36954 ft | 575 kts | 53° |
| 2026-05-09 06:20 | 30.14016 | -89.46631 | 36948 ft | 575 kts | 53° |
| 2026-05-09 06:20 | 30.18229 | -89.38767 | 36955 ft | 575 kts | 53° |
| 2026-05-09 06:21 | 30.22446 | -89.30889 | 36967 ft | 576 kts | 53° |
| 2026-05-09 06:21 | 30.26654 | -89.23007 | 36980 ft | 576 kts | 54° |
| 2026-05-09 06:22 | 30.30865 | -89.15107 | 36991 ft | 577 kts | 54° |
| 2026-05-09 06:22 | 30.35070 | -89.07198 | 36995 ft | 577 kts | 54° |
| 2026-05-09 06:23 | 30.39253 | -88.99320 | 36935 ft | 578 kts | 53° |
| 2026-05-09 06:23 | 30.43462 | -88.91374 | 36936 ft | 579 kts | 53° |
| 2026-05-09 06:24 | 30.47673 | -88.83409 | 36933 ft | 579 kts | 53° |
| 2026-05-09 06:24 | 30.51883 | -88.75431 | 36946 ft | 580 kts | 53° |
| 2026-05-09 06:25 | 30.56093 | -88.67435 | 36967 ft | 581 kts | 53° |
| 2026-05-09 06:25 | 30.60303 | -88.59425 | 36952 ft | 581 kts | 53° |
| 2026-05-09 06:26 | 30.63794 | -88.52767 | 36964 ft | 581 kts | 53° |
| 2026-05-09 06:26 | 30.67994 | -88.44747 | 36972 ft | 581 kts | 53° |
| 2026-05-09 06:27 | 30.72986 | -88.35512 | 37002 ft | 574 kts | 44° |
| 2026-05-09 06:27 | 30.77319 | -88.29622 | 36968 ft | 571 kts | 41° |
| 2026-05-09 06:28 | 30.82578 | -88.22687 | 36975 ft | 571 kts | 42° |
| 2026-05-09 06:28 | 30.87756 | -88.15745 | 36978 ft | 572 kts | 42° |
| 2026-05-09 06:29 | 30.92987 | -88.08781 | 36979 ft | 571 kts | 42° |
| 2026-05-09 06:29 | 30.98208 | -88.01785 | 36978 ft | 572 kts | 42° |
| 2026-05-09 06:30 | 31.03432 | -87.94788 | 36975 ft | 572 kts | 42° |
| 2026-05-09 06:30 | 31.08651 | -87.87778 | 36976 ft | 572 kts | 42° |
| 2026-05-09 06:31 | 31.13866 | -87.80762 | 36972 ft | 572 kts | 42° |
| 2026-05-09 06:31 | 31.19080 | -87.73735 | 36971 ft | 572 kts | 42° |
| 2026-05-09 06:32 | 31.24249 | -87.66756 | 36968 ft | 572 kts | 42° |
| 2026-05-09 06:33 | 31.31883 | -87.55993 | 37001 ft | 579 kts | 51° |
| 2026-05-09 06:33 | 31.36418 | -87.48172 | 36971 ft | 582 kts | 50° |
| 2026-05-09 06:34 | 31.43212 | -87.36395 | 36978 ft | 582 kts | 50° |
| 2026-05-09 06:34 | 31.47746 | -87.28535 | 36976 ft | 583 kts | 50° |
| 2026-05-09 06:35 | 31.52270 | -87.20659 | 36981 ft | 583 kts | 50° |
| 2026-05-09 06:35 | 31.56795 | -87.12777 | 36985 ft | 583 kts | 50° |
| 2026-05-09 06:36 | 31.61317 | -87.04876 | 36982 ft | 583 kts | 50° |
| 2026-05-09 06:36 | 31.65835 | -86.96970 | 36966 ft | 583 kts | 50° |
| 2026-05-09 06:37 | 31.70352 | -86.89050 | 36974 ft | 584 kts | 51° |
| 2026-05-09 06:37 | 31.74837 | -86.81168 | 36976 ft | 585 kts | 51° |
| 2026-05-09 06:38 | 31.79358 | -86.73207 | 36980 ft | 585 kts | 51° |
| 2026-05-09 06:38 | 31.83872 | -86.65242 | 36981 ft | 585 kts | 51° |
| 2026-05-09 06:39 | 31.88381 | -86.57268 | 36982 ft | 586 kts | 51° |
| 2026-05-09 06:39 | 31.92895 | -86.49271 | 36982 ft | 586 kts | 51° |
| 2026-05-09 06:40 | 31.97404 | -86.41266 | 36975 ft | 586 kts | 51° |
| 2026-05-09 06:40 | 32.01906 | -86.33254 | 36977 ft | 587 kts | 51° |
| 2026-05-09 06:41 | 32.06413 | -86.25217 | 36981 ft | 587 kts | 51° |
| 2026-05-09 06:41 | 32.10911 | -86.17179 | 36981 ft | 587 kts | 51° |
| 2026-05-09 06:42 | 32.15380 | -86.09177 | 36985 ft | 587 kts | 51° |
| 2026-05-09 06:42 | 32.19873 | -86.01115 | 36986 ft | 588 kts | 51° |
| 2026-05-09 06:43 | 32.24363 | -85.93042 | 36984 ft | 588 kts | 51° |
| 2026-05-09 06:43 | 32.28849 | -85.84957 | 36982 ft | 588 kts | 51° |
| 2026-05-09 06:44 | 32.33326 | -85.76870 | 36984 ft | 587 kts | 51° |
| 2026-05-09 06:44 | 32.37798 | -85.68779 | 36987 ft | 588 kts | 51° |
| 2026-05-09 06:45 | 32.42260 | -85.60686 | 36993 ft | 587 kts | 51° |
| 2026-05-09 06:45 | 32.46719 | -85.52582 | 36979 ft | 587 kts | 51° |
| 2026-05-09 06:46 | 32.51170 | -85.44473 | 36990 ft | 587 kts | 51° |
| 2026-05-09 06:46 | 32.55620 | -85.36351 | 36995 ft | 587 kts | 51° |
| 2026-05-09 06:47 | 32.60064 | -85.28219 | 36993 ft | 588 kts | 51° |
| 2026-05-09 06:47 | 32.64477 | -85.20129 | 36999 ft | 588 kts | 51° |
| 2026-05-09 06:48 | 32.68913 | -85.11978 | 36997 ft | 588 kts | 51° |
| 2026-05-09 06:48 | 32.73347 | -85.03815 | 36992 ft | 589 kts | 51° |
| 2026-05-09 06:49 | 32.77779 | -84.95635 | 36996 ft | 589 kts | 51° |
| 2026-05-09 06:49 | 32.82207 | -84.87446 | 36991 ft | 589 kts | 51° |
| 2026-05-09 06:50 | 32.86632 | -84.79243 | 36991 ft | 590 kts | 51° |
| 2026-05-09 06:50 | 32.91054 | -84.71029 | 36992 ft | 589 kts | 51° |
| 2026-05-09 06:51 | 32.95470 | -84.62808 | 36995 ft | 590 kts | 51° |
| 2026-05-09 06:51 | 32.99885 | -84.54569 | 37008 ft | 589 kts | 51° |
| 2026-05-09 06:52 | 33.04259 | -84.46390 | 37009 ft | 589 kts | 51° |
| 2026-05-09 06:52 | 33.08653 | -84.38153 | 37014 ft | 589 kts | 51° |
| 2026-05-09 06:53 | 33.13050 | -84.29895 | 37012 ft | 590 kts | 52° |
| 2026-05-09 06:53 | 33.17443 | -84.21623 | 37008 ft | 590 kts | 52° |
| 2026-05-09 06:54 | 33.21830 | -84.13347 | 37008 ft | 590 kts | 52° |
| 2026-05-09 06:54 | 33.26211 | -84.05060 | 37004 ft | 590 kts | 52° |
| 2026-05-09 06:55 | 33.30584 | -83.96772 | 36996 ft | 589 kts | 52° |
| 2026-05-09 06:55 | 33.34947 | -83.88484 | 36993 ft | 590 kts | 52° |
| 2026-05-09 06:56 | 33.39315 | -83.80166 | 36994 ft | 590 kts | 52° |
| 2026-05-09 06:56 | 33.43677 | -83.71844 | 36997 ft | 590 kts | 52° |
| 2026-05-09 06:57 | 33.48035 | -83.63507 | 37000 ft | 590 kts | 52° |
| 2026-05-09 06:57 | 33.52360 | -83.55216 | 37001 ft | 590 kts | 52° |
| 2026-05-09 06:58 | 33.56707 | -83.46863 | 36999 ft | 591 kts | 52° |
| 2026-05-09 06:58 | 33.61057 | -83.38485 | 36997 ft | 591 kts | 52° |
| 2026-05-09 06:59 | 33.65398 | -83.30107 | 37005 ft | 591 kts | 52° |
| 2026-05-09 06:59 | 33.69735 | -83.21715 | 36996 ft | 592 kts | 52° |
| 2026-05-09 07:00 | 33.74072 | -83.13303 | 37002 ft | 592 kts | 52° |
| 2026-05-09 07:00 | 33.78400 | -83.04893 | 36998 ft | 593 kts | 52° |
| 2026-05-09 07:01 | 33.82732 | -82.96449 | 37005 ft | 593 kts | 52° |
| 2026-05-09 07:01 | 33.87056 | -82.88006 | 37009 ft | 593 kts | 53° |
| 2026-05-09 07:02 | 33.91462 | -82.79632 | 37011 ft | 591 kts | 51° |
| 2026-05-09 07:02 | 33.95898 | -82.71301 | 37007 ft | 591 kts | 52° |
| 2026-05-09 07:03 | 34.00258 | -82.62978 | 37007 ft | 591 kts | 51° |
| 2026-05-09 07:03 | 34.04684 | -82.54610 | 37010 ft | 592 kts | 52° |
| 2026-05-09 07:04 | 34.09075 | -82.46213 | 37005 ft | 591 kts | 52° |
| 2026-05-09 07:04 | 34.13479 | -82.37826 | 37008 ft | 592 kts | 52° |
| 2026-05-09 07:05 | 34.17868 | -82.29408 | 37017 ft | 592 kts | 52° |
| 2026-05-09 07:05 | 34.22260 | -82.20993 | 37024 ft | 592 kts | 52° |
| 2026-05-09 07:06 | 34.26645 | -82.12535 | 37022 ft | 593 kts | 53° |
| 2026-05-09 07:06 | 34.30874 | -82.04034 | 37010 ft | 594 kts | 53° |
| 2026-05-09 07:07 | 34.35186 | -81.95503 | 37008 ft | 594 kts | 53° |
| 2026-05-09 07:07 | 34.39461 | -81.86945 | 37010 ft | 594 kts | 53° |
| 2026-05-09 07:08 | 34.43743 | -81.78389 | 37009 ft | 595 kts | 53° |
| 2026-05-09 07:08 | 34.48025 | -81.69801 | 37034 ft | 595 kts | 54° |
| 2026-05-09 07:09 | 34.52311 | -81.61182 | 37010 ft | 596 kts | 54° |
| 2026-05-09 07:09 | 34.56587 | -81.52568 | 37008 ft | 597 kts | 54° |
| 2026-05-09 07:10 | 34.60865 | -81.43924 | 36999 ft | 597 kts | 54° |
| 2026-05-09 07:10 | 34.65110 | -81.35329 | 37012 ft | 598 kts | 54° |
| 2026-05-09 07:11 | 34.69385 | -81.26648 | 37016 ft | 598 kts | 54° |
| 2026-05-09 07:11 | 34.73662 | -81.17947 | 37018 ft | 600 kts | 54° |
| 2026-05-09 07:12 | 34.77937 | -81.09222 | 37016 ft | 601 kts | 54° |
| 2026-05-09 07:12 | 34.81742 | -81.00111 | 37009 ft | 607 kts | 62° |
| 2026-05-09 07:13 | 34.85204 | -80.90732 | 37021 ft | 607 kts | 62° |
| 2026-05-09 07:13 | 34.88657 | -80.81353 | 37020 ft | 607 kts | 62° |
| 2026-05-09 07:14 | 34.92104 | -80.71963 | 37020 ft | 607 kts | 62° |
| 2026-05-09 07:14 | 34.95543 | -80.62566 | 37019 ft | 606 kts | 62° |
| 2026-05-09 07:15 | 34.98969 | -80.53180 | 37020 ft | 606 kts | 62° |
| 2026-05-09 07:15 | 35.02366 | -80.43842 | 37021 ft | 606 kts | 62° |
| 2026-05-09 07:16 | 35.05778 | -80.34440 | 37024 ft | 606 kts | 63° |
| 2026-05-09 07:16 | 35.09185 | -80.25018 | 37031 ft | 606 kts | 63° |
| 2026-05-09 07:17 | 35.12585 | -80.15591 | 37031 ft | 606 kts | 63° |
| 2026-05-09 07:17 | 35.15977 | -80.06157 | 37031 ft | 607 kts | 63° |
| 2026-05-09 07:18 | 35.19368 | -79.96701 | 37029 ft | 607 kts | 63° |
| 2026-05-09 07:18 | 35.22759 | -79.87242 | 37017 ft | 607 kts | 63° |
| 2026-05-09 07:19 | 35.26139 | -79.77775 | 37007 ft | 607 kts | 63° |
| 2026-05-09 07:19 | 35.28941 | -79.69909 | 37019 ft | 607 kts | 63° |
| 2026-05-09 07:20 | 35.32306 | -79.60437 | 37032 ft | 607 kts | 63° |
| 2026-05-09 07:20 | 35.36206 | -79.49419 | 37045 ft | 606 kts | 63° |
| 2026-05-09 07:21 | 35.39009 | -79.41479 | 37046 ft | 606 kts | 63° |
| 2026-05-09 07:21 | 35.42352 | -79.31980 | 37045 ft | 606 kts | 63° |
| 2026-05-09 07:22 | 35.45687 | -79.22478 | 37039 ft | 606 kts | 63° |
| 2026-05-09 07:22 | 35.49009 | -79.12981 | 37028 ft | 606 kts | 63° |
| 2026-05-09 07:23 | 35.52303 | -79.03536 | 37027 ft | 606 kts | 63° |
| 2026-05-09 07:23 | 35.55607 | -78.94032 | 37038 ft | 606 kts | 63° |
| 2026-05-09 07:24 | 35.58911 | -78.84502 | 37038 ft | 606 kts | 63° |
| 2026-05-09 07:24 | 35.62203 | -78.74973 | 37035 ft | 606 kts | 63° |
| 2026-05-09 07:25 | 35.65489 | -78.65422 | 37037 ft | 606 kts | 63° |
| 2026-05-09 07:25 | 35.68768 | -78.55868 | 37043 ft | 606 kts | 63° |
| 2026-05-09 07:26 | 35.72040 | -78.46302 | 37040 ft | 606 kts | 63° |
| 2026-05-09 07:26 | 35.75303 | -78.36735 | 37038 ft | 606 kts | 63° |
| 2026-05-09 07:27 | 35.78561 | -78.27165 | 37049 ft | 606 kts | 64° |
| 2026-05-09 07:27 | 35.81811 | -78.17581 | 37046 ft | 606 kts | 64° |
| 2026-05-09 07:28 | 35.85055 | -78.07989 | 37049 ft | 606 kts | 64° |
| 2026-05-09 07:28 | 35.88290 | -77.98390 | 37044 ft | 606 kts | 64° |
| 2026-05-09 07:29 | 35.91498 | -77.88844 | 37038 ft | 606 kts | 64° |
| 2026-05-09 07:29 | 35.94718 | -77.79229 | 37046 ft | 606 kts | 64° |
| 2026-05-09 07:30 | 35.98401 | -77.69961 | 37061 ft | 595 kts | 47° |
| 2026-05-09 07:30 | 36.00948 | -77.66012 | 37065 ft | 584 kts | 38° |
| 2026-05-09 07:30 | 36.03703 | -77.62304 | 37059 ft | 585 kts | 39° |
| 2026-05-09 07:31 | 36.09210 | -77.54912 | 37049 ft | 585 kts | 39° |
| 2026-05-09 07:31 | 36.14688 | -77.47551 | 37048 ft | 585 kts | 39° |
| 2026-05-09 07:32 | 36.20198 | -77.40118 | 37057 ft | 585 kts | 39° |
| 2026-05-09 07:32 | 36.25704 | -77.32686 | 37056 ft | 586 kts | 39° |
| 2026-05-09 07:33 | 36.34177 | -77.21896 | 37054 ft | 576 kts | 32° |
| 2026-05-09 07:34 | 36.40128 | -77.15213 | 37058 ft | 578 kts | 32° |
| 2026-05-09 07:34 | 36.46099 | -77.08537 | 37054 ft | 577 kts | 32° |
| 2026-05-09 07:35 | 36.52056 | -77.01842 | 37054 ft | 578 kts | 32° |
| 2026-05-09 07:35 | 36.58006 | -76.95148 | 37056 ft | 577 kts | 32° |
| 2026-05-09 07:36 | 36.63959 | -76.88436 | 37054 ft | 577 kts | 32° |
| 2026-05-09 07:36 | 36.69910 | -76.81707 | 37052 ft | 577 kts | 32° |
| 2026-05-09 07:37 | 36.75862 | -76.74968 | 37053 ft | 578 kts | 33° |
| 2026-05-09 07:37 | 36.81804 | -76.68219 | 37061 ft | 578 kts | 33° |
| 2026-05-09 07:38 | 36.87749 | -76.61458 | 37064 ft | 579 kts | 33° |
| 2026-05-09 07:38 | 36.93697 | -76.54674 | 37058 ft | 579 kts | 33° |
| 2026-05-09 07:39 | 36.99641 | -76.47883 | 37041 ft | 578 kts | 33° |
| 2026-05-09 07:39 | 37.05530 | -76.41138 | 37033 ft | 578 kts | 33° |
| 2026-05-09 07:40 | 37.11396 | -76.34394 | 37008 ft | 563 kts | 32° |
| 2026-05-09 07:40 | 37.17113 | -76.27822 | 36985 ft | 545 kts | 32° |
| 2026-05-09 07:41 | 37.22582 | -76.21518 | 36934 ft | 530 kts | 32° |
| 2026-05-09 07:41 | 37.27933 | -76.15336 | 36889 ft | 516 kts | 31° |
| 2026-05-09 07:42 | 37.33141 | -76.09311 | 36837 ft | 502 kts | 31° |
| 2026-05-09 07:42 | 37.38232 | -76.03412 | 36555 ft | 496 kts | 31° |
| 2026-05-09 07:42 | 37.40775 | -76.00467 | 36264 ft | 497 kts | 31° |
| 2026-05-09 07:43 | 37.43317 | -75.97510 | 35992 ft | 498 kts | 31° |
| 2026-05-09 07:43 | 37.45856 | -75.94550 | 35748 ft | 498 kts | 31° |
| 2026-05-09 07:43 | 37.48403 | -75.91583 | 35495 ft | 499 kts | 31° |
| 2026-05-09 07:43 | 37.50953 | -75.88614 | 35253 ft | 499 kts | 31° |
| 2026-05-09 07:44 | 37.53565 | -75.85787 | 35012 ft | 486 kts | 20° |
| 2026-05-09 07:44 | 37.56380 | -75.83542 | 34765 ft | 476 kts | 17° |
| 2026-05-09 07:44 | 37.59225 | -75.81405 | 34521 ft | 476 kts | 17° |
| 2026-05-09 07:44 | 37.62077 | -75.79284 | 34284 ft | 476 kts | 17° |
| 2026-05-09 07:45 | 37.64934 | -75.77150 | 34049 ft | 477 kts | 17° |
| 2026-05-09 07:45 | 37.67783 | -75.75006 | 33815 ft | 477 kts | 17° |
| 2026-05-09 07:45 | 37.70626 | -75.72863 | 33613 ft | 475 kts | 17° |
| 2026-05-09 07:45 | 37.73462 | -75.70733 | 33424 ft | 474 kts | 17° |
| 2026-05-09 07:46 | 37.76291 | -75.68609 | 33203 ft | 472 kts | 17° |
| 2026-05-09 07:46 | 37.79106 | -75.66490 | 33007 ft | 471 kts | 18° |
| 2026-05-09 07:46 | 37.81918 | -75.64367 | 32818 ft | 469 kts | 18° |
| 2026-05-09 07:46 | 37.84703 | -75.62221 | 32613 ft | 473 kts | 23° |
| 2026-05-09 07:47 | 37.87414 | -75.59849 | 32395 ft | 473 kts | 22° |
| 2026-05-09 07:47 | 37.90090 | -75.57523 | 32208 ft | 471 kts | 22° |
| 2026-05-09 07:47 | 37.92793 | -75.55179 | 32009 ft | 470 kts | 22° |
| 2026-05-09 07:47 | 37.95483 | -75.52838 | 31816 ft | 469 kts | 23° |
| 2026-05-09 07:48 | 37.98164 | -75.50497 | 31632 ft | 467 kts | 23° |
| 2026-05-09 07:48 | 38.00830 | -75.48169 | 31437 ft | 465 kts | 23° |
| 2026-05-09 07:48 | 38.03495 | -75.45845 | 31236 ft | 464 kts | 24° |
| 2026-05-09 07:48 | 38.06159 | -75.43572 | 31028 ft | 458 kts | 20° |
| 2026-05-09 07:49 | 38.08851 | -75.41409 | 30792 ft | 458 kts | 22° |
| 2026-05-09 07:49 | 38.11523 | -75.39205 | 30598 ft | 457 kts | 22° |
| 2026-05-09 07:49 | 38.14189 | -75.37016 | 30382 ft | 455 kts | 22° |
| 2026-05-09 07:49 | 38.16854 | -75.34854 | 30178 ft | 454 kts | 22° |
| 2026-05-09 07:50 | 38.19509 | -75.32697 | 29944 ft | 453 kts | 22° |
| 2026-05-09 07:50 | 38.22157 | -75.30531 | 29640 ft | 452 kts | 22° |
| 2026-05-09 07:50 | 38.24904 | -75.28739 | 29320 ft | 438 kts | 11° |
| 2026-05-09 07:50 | 38.27767 | -75.27612 | 28983 ft | 424 kts | 0° |
| 2026-05-09 07:51 | 38.30648 | -75.26978 | 28607 ft | 422 kts | 359° |
| 2026-05-09 07:51 | 38.33552 | -75.26356 | 28259 ft | 423 kts | 359° |
| 2026-05-09 07:51 | 38.36462 | -75.25743 | 27910 ft | 424 kts | 359° |
| 2026-05-09 07:51 | 38.39373 | -75.25137 | 27561 ft | 425 kts | 360° |
| 2026-05-09 07:52 | 38.42295 | -75.24523 | 27212 ft | 426 kts | 0° |
| 2026-05-09 07:52 | 38.45224 | -75.23903 | 26858 ft | 427 kts | 0° |
| 2026-05-09 07:52 | 38.48162 | -75.23283 | 26506 ft | 428 kts | 0° |
| 2026-05-09 07:52 | 38.51105 | -75.22665 | 26143 ft | 429 kts | 1° |
| 2026-05-09 07:53 | 38.54057 | -75.22049 | 25783 ft | 430 kts | 1° |
| 2026-05-09 07:53 | 38.57012 | -75.21428 | 25424 ft | 431 kts | 1° |
| 2026-05-09 07:53 | 38.59935 | -75.20812 | 25072 ft | 432 kts | 1° |
| 2026-05-09 07:53 | 38.62904 | -75.20187 | 24725 ft | 433 kts | 1° |
| 2026-05-09 07:54 | 38.65865 | -75.19561 | 24540 ft | 429 kts | 2° |
| 2026-05-09 07:54 | 38.68793 | -75.18696 | 24251 ft | 437 kts | 12° |
| 2026-05-09 07:54 | 38.71599 | -75.17115 | 23996 ft | 446 kts | 24° |
| 2026-05-09 07:54 | 38.74173 | -75.14864 | 23733 ft | 451 kts | 32° |
| 2026-05-09 07:55 | 38.76676 | -75.12438 | 23468 ft | 449 kts | 32° |
| 2026-05-09 07:55 | 38.79150 | -75.10004 | 23223 ft | 447 kts | 32° |
| 2026-05-09 07:55 | 38.81609 | -75.07578 | 22962 ft | 446 kts | 32° |
| 2026-05-09 07:55 | 38.84068 | -75.05168 | 22713 ft | 444 kts | 31° |
| 2026-05-09 07:56 | 38.86519 | -75.02768 | 22492 ft | 442 kts | 32° |
| 2026-05-09 07:56 | 38.88957 | -75.00371 | 22250 ft | 440 kts | 32° |
| 2026-05-09 07:56 | 38.91383 | -74.97981 | 22006 ft | 439 kts | 32° |
| 2026-05-09 07:56 | 38.93801 | -74.95599 | 21803 ft | 437 kts | 32° |
| 2026-05-09 07:57 | 38.96209 | -74.93227 | 21559 ft | 436 kts | 32° |
| 2026-05-09 07:57 | 38.98614 | -74.90854 | 21334 ft | 434 kts | 32° |
| 2026-05-09 07:57 | 39.01004 | -74.88493 | 21118 ft | 433 kts | 32° |
| 2026-05-09 07:57 | 39.03390 | -74.86134 | 20903 ft | 432 kts | 32° |
| 2026-05-09 07:58 | 39.05765 | -74.83786 | 20694 ft | 430 kts | 32° |
| 2026-05-09 07:58 | 39.08136 | -74.81439 | 20490 ft | 429 kts | 32° |
| 2026-05-09 07:58 | 39.10540 | -74.79189 | 20269 ft | 424 kts | 26° |
| 2026-05-09 07:58 | 39.13006 | -74.77114 | 20062 ft | 424 kts | 27° |
| 2026-05-09 07:59 | 39.15455 | -74.75011 | 19860 ft | 423 kts | 27° |
| 2026-05-09 07:59 | 39.17871 | -74.72939 | 19669 ft | 421 kts | 27° |
| 2026-05-09 07:59 | 39.20313 | -74.70861 | 19480 ft | 420 kts | 27° |
| 2026-05-09 07:59 | 39.22753 | -74.68784 | 19276 ft | 420 kts | 27° |
| 2026-05-09 08:00 | 39.25187 | -74.66700 | 19088 ft | 419 kts | 27° |
| 2026-05-09 08:00 | 39.27612 | -74.64621 | 18907 ft | 418 kts | 27° |
| 2026-05-09 08:00 | 39.30039 | -74.62543 | 18729 ft | 418 kts | 27° |
| 2026-05-09 08:00 | 39.32451 | -74.60477 | 18551 ft | 417 kts | 28° |
| 2026-05-09 08:01 | 39.34869 | -74.58403 | 18388 ft | 416 kts | 28° |
| 2026-05-09 08:01 | 39.37277 | -74.56335 | 18206 ft | 416 kts | 28° |
| 2026-05-09 08:01 | 39.39681 | -74.54268 | 18042 ft | 414 kts | 28° |
| 2026-05-09 08:01 | 39.42075 | -74.52209 | 17866 ft | 413 kts | 28° |
| 2026-05-09 08:02 | 39.44463 | -74.50154 | 17705 ft | 412 kts | 28° |
| 2026-05-09 08:02 | 39.46845 | -74.48102 | 17549 ft | 410 kts | 28° |
| 2026-05-09 08:02 | 39.49214 | -74.46059 | 17389 ft | 409 kts | 28° |
| 2026-05-09 08:02 | 39.51581 | -74.44016 | 17231 ft | 408 kts | 28° |
| 2026-05-09 08:03 | 39.53937 | -74.41981 | 17083 ft | 407 kts | 28° |
| 2026-05-09 08:03 | 39.56288 | -74.39950 | 16939 ft | 405 kts | 28° |
| 2026-05-09 08:03 | 39.58631 | -74.37922 | 16774 ft | 404 kts | 28° |
| 2026-05-09 08:03 | 39.60966 | -74.35901 | 16650 ft | 403 kts | 28° |
| 2026-05-09 08:04 | 39.63296 | -74.33882 | 16508 ft | 402 kts | 28° |
| 2026-05-09 08:04 | 39.65615 | -74.31870 | 16353 ft | 401 kts | 28° |
| 2026-05-09 08:04 | 39.67928 | -74.29862 | 16236 ft | 400 kts | 28° |
| 2026-05-09 08:04 | 39.70239 | -74.27855 | 16095 ft | 399 kts | 28° |
| 2026-05-09 08:05 | 39.72541 | -74.25854 | 15972 ft | 397 kts | 28° |
| 2026-05-09 08:05 | 39.74834 | -74.23859 | 15853 ft | 396 kts | 28° |
| 2026-05-09 08:05 | 39.77120 | -74.21868 | 15726 ft | 395 kts | 28° |
| 2026-05-09 08:05 | 39.79399 | -74.19882 | 15599 ft | 394 kts | 28° |
| 2026-05-09 08:06 | 39.81665 | -74.17906 | 15476 ft | 393 kts | 28° |
| 2026-05-09 08:06 | 39.83937 | -74.15923 | 15355 ft | 392 kts | 28° |
| 2026-05-09 08:06 | 39.86200 | -74.13945 | 15258 ft | 391 kts | 28° |
| 2026-05-09 08:06 | 39.88449 | -74.11979 | 15139 ft | 389 kts | 28° |
| 2026-05-09 08:07 | 39.90695 | -74.10014 | 15032 ft | 388 kts | 29° |
| 2026-05-09 08:07 | 39.92931 | -74.08055 | 14914 ft | 387 kts | 29° |
| 2026-05-09 08:07 | 39.95162 | -74.06100 | 14812 ft | 386 kts | 29° |
| 2026-05-09 08:07 | 39.97356 | -74.04175 | 14695 ft | 385 kts | 29° |
| 2026-05-09 08:08 | 39.99578 | -74.02225 | 14608 ft | 384 kts | 29° |
| 2026-05-09 08:08 | 40.01793 | -74.00280 | 14506 ft | 383 kts | 29° |
| 2026-05-09 08:08 | 40.03998 | -73.98340 | 14398 ft | 382 kts | 29° |
| 2026-05-09 08:08 | 40.06199 | -73.96404 | 14288 ft | 381 kts | 29° |
| 2026-05-09 08:09 | 40.08400 | -73.94466 | 14197 ft | 380 kts | 29° |
| 2026-05-09 08:09 | 40.10591 | -73.92535 | 14090 ft | 379 kts | 29° |
| 2026-05-09 08:09 | 40.12774 | -73.90609 | 14000 ft | 378 kts | 29° |
| 2026-05-09 08:09 | 40.14950 | -73.88687 | 13858 ft | 373 kts | 29° |
| 2026-05-09 08:10 | 40.17100 | -73.86788 | 13049 ft | 373 kts | 29° |
| 2026-05-09 08:10 | 40.18533 | -73.85524 | 12795 ft | 375 kts | 30° |
| 2026-05-09 08:10 | 40.20688 | -73.83616 | 12811 ft | 371 kts | 30° |
| 2026-05-09 08:10 | 40.22818 | -73.81729 | 12736 ft | 370 kts | 30° |
| 2026-05-09 08:11 | 40.24943 | -73.79847 | 12392 ft | 369 kts | 30° |
| 2026-05-09 08:11 | 40.27069 | -73.77964 | 12179 ft | 369 kts | 30° |
| 2026-05-09 08:11 | 40.29874 | -73.75473 | 12106 ft | 367 kts | 30° |
| 2026-05-09 08:11 | 40.31985 | -73.73599 | 12025 ft | 366 kts | 30° |
| 2026-05-09 08:12 | 40.35517 | -73.70459 | 11872 ft | 365 kts | 30° |
| 2026-05-09 08:12 | 40.37616 | -73.68590 | 11810 ft | 365 kts | 30° |
| 2026-05-09 08:12 | 40.39713 | -73.66722 | 11696 ft | 363 kts | 30° |
| 2026-05-09 08:13 | 40.41804 | -73.64859 | 11081 ft | 358 kts | 30° |
| 2026-05-09 08:13 | 40.43811 | -73.63062 | 10468 ft | 340 kts | 30° |
| 2026-05-09 08:13 | 40.45713 | -73.61361 | 9953 ft | 322 kts | 30° |
| 2026-05-09 08:13 | 40.47514 | -73.59753 | 9444 ft | 303 kts | 29° |
| 2026-05-09 08:14 | 40.49199 | -73.58247 | 8934 ft | 284 kts | 29° |
| 2026-05-09 08:14 | 40.50776 | -73.56848 | 8353 ft | 271 kts | 27° |
| 2026-05-09 08:14 | 40.52347 | -73.55558 | 7720 ft | 263 kts | 26° |
| 2026-05-09 08:14 | 40.53880 | -73.54295 | 7086 ft | 257 kts | 26° |
| 2026-05-09 08:15 | 40.55437 | -73.53207 | 6469 ft | 252 kts | 21° |
| 2026-05-09 08:15 | 40.56997 | -73.52176 | 5822 ft | 249 kts | 21° |
| 2026-05-09 08:15 | 40.58564 | -73.51267 | 5146 ft | 241 kts | 7° |
| 2026-05-09 08:15 | 40.60132 | -73.51498 | 4451 ft | 221 kts | 326° |
| 2026-05-09 08:16 | 40.61114 | -73.52889 | 3785 ft | 204 kts | 287° |
| 2026-05-09 08:16 | 40.61090 | -73.54670 | 3129 ft | 199 kts | 244° |
| 2026-05-09 08:16 | 40.60071 | -73.55867 | 3010 ft | 206 kts | 209° |
| 2026-05-09 08:16 | 40.58730 | -73.56586 | 3012 ft | 201 kts | 204° |
| 2026-05-09 08:17 | 40.57500 | -73.57183 | 3005 ft | 177 kts | 203° |
| 2026-05-09 08:17 | 40.56403 | -73.57720 | 2984 ft | 162 kts | 205° |
| 2026-05-09 08:17 | 40.55675 | -73.58729 | 2880 ft | 156 kts | 253° |
| 2026-05-09 08:17 | 40.55678 | -73.60146 | 2968 ft | 156 kts | 270° |
| 2026-05-09 08:18 | 40.55737 | -73.61589 | 2995 ft | 160 kts | 269° |
| 2026-05-09 08:18 | 40.55820 | -73.63045 | 2983 ft | 161 kts | 275° |
| 2026-05-09 08:18 | 40.56511 | -73.64216 | 2900 ft | 173 kts | 325° |
| 2026-05-09 08:18 | 40.57602 | -73.64880 | 2990 ft | 174 kts | 326° |
| 2026-05-09 08:19 | 40.58506 | -73.65870 | 2983 ft | 163 kts | 307° |
| 2026-05-09 08:19 | 40.59198 | -73.67065 | 2934 ft | 173 kts | 301° |
| 2026-05-09 08:19 | 40.59929 | -73.68380 | 2424 ft | 176 kts | 303° |
| 2026-05-09 08:19 | 40.60666 | -73.69639 | 2012 ft | 170 kts | 304° |
| 2026-05-09 08:20 | 40.61420 | -73.70927 | 2019 ft | 195 kts | 304° |
| 2026-05-09 08:20 | 40.62240 | -73.72326 | 3005 ft | 191 kts | 303° |
| 2026-05-09 08:20 | 40.63090 | -73.73788 | 3882 ft | 213 kts | 302° |
| 2026-05-09 08:20 | 40.64047 | -73.75459 | 3976 ft | 249 kts | 302° |
| 2026-05-09 08:21 | 40.65110 | -73.77477 | 4001 ft | 284 kts | 291° |
| 2026-05-09 08:21 | 40.65668 | -73.79989 | 4008 ft | 288 kts | 279° |
| 2026-05-09 08:21 | 40.65828 | -73.82562 | 4009 ft | 291 kts | 266° |
| 2026-05-09 08:21 | 40.65527 | -73.85283 | 4009 ft | 290 kts | 253° |
| 2026-05-09 08:22 | 40.64809 | -73.87695 | 4010 ft | 289 kts | 242° |
| 2026-05-09 08:22 | 40.63674 | -73.89889 | 4006 ft | 289 kts | 229° |
| 2026-05-09 08:22 | 40.62283 | -73.91599 | 4010 ft | 289 kts | 218° |
| 2026-05-09 08:22 | 40.60840 | -73.92757 | 4009 ft | 291 kts | 208° |
| 2026-05-09 08:23 | 40.59020 | -73.93619 | 4009 ft | 293 kts | 198° |
| 2026-05-09 08:23 | 40.57057 | -73.94333 | 4006 ft | 294 kts | 199° |
| 2026-05-09 08:23 | 40.55146 | -73.95033 | 3998 ft | 275 kts | 199° |
| 2026-05-09 08:23 | 40.53330 | -73.95474 | 3972 ft | 261 kts | 182° |
| 2026-05-09 08:24 | 40.51559 | -73.95056 | 3986 ft | 261 kts | 164° |
| 2026-05-09 08:24 | 40.49983 | -73.93844 | 3991 ft | 268 kts | 144° |
| 2026-05-09 08:24 | 40.48799 | -73.91919 | 3991 ft | 276 kts | 122° |
| 2026-05-09 08:24 | 40.48220 | -73.89526 | 3957 ft | 274 kts | 99° |
| 2026-05-09 08:25 | 40.48331 | -73.87078 | 3938 ft | 265 kts | 78° |
| 2026-05-09 08:25 | 40.48800 | -73.84786 | 3881 ft | 256 kts | 72° |
| 2026-05-09 08:25 | 40.49478 | -73.82625 | 3623 ft | 256 kts | 66° |
| 2026-05-09 08:25 | 40.50162 | -73.80516 | 3615 ft | 242 kts | 69° |
| 2026-05-09 08:26 | 40.50735 | -73.78541 | 3628 ft | 220 kts | 70° |
| 2026-05-09 08:26 | 40.51249 | -73.76724 | 3520 ft | 209 kts | 71° |
| 2026-05-09 08:26 | 40.51764 | -73.74934 | 3258 ft | 208 kts | 70° |
| 2026-05-09 08:26 | 40.52278 | -73.73166 | 3013 ft | 205 kts | 70° |
| 2026-05-09 08:27 | 40.52774 | -73.71454 | 2987 ft | 200 kts | 70° |
| 2026-05-09 08:27 | 40.53277 | -73.69721 | 2993 ft | 204 kts | 70° |
| 2026-05-09 08:27 | 40.53786 | -73.67956 | 2877 ft | 207 kts | 70° |
| 2026-05-09 08:27 | 40.54298 | -73.66187 | 2659 ft | 207 kts | 70° |
| 2026-05-09 08:28 | 40.54807 | -73.64430 | 2369 ft | 204 kts | 70° |
| 2026-05-09 08:28 | 40.55484 | -73.62910 | 2299 ft | 186 kts | 45° |
| 2026-05-09 08:28 | 40.56591 | -73.62202 | 2040 ft | 175 kts | 9° |
| 2026-05-09 08:28 | 40.57746 | -73.62393 | 1811 ft | 159 kts | 334° |
| 2026-05-09 08:29 | 40.58539 | -73.63314 | 1838 ft | 153 kts | 305° |
| 2026-05-09 08:29 | 40.59153 | -73.64508 | 1910 ft | 160 kts | 299° |
| 2026-05-09 08:29 | 40.59752 | -73.65766 | 1868 ft | 166 kts | 298° |
| 2026-05-09 08:29 | 40.60352 | -73.67058 | 1662 ft | 164 kts | 297° |
| 2026-05-09 08:30 | 40.60935 | -73.68343 | 1436 ft | 163 kts | 297° |
| 2026-05-09 08:30 | 40.61517 | -73.69625 | 1201 ft | 163 kts | 297° |
| 2026-05-09 08:30 | 40.62098 | -73.70909 | 976 ft | 164 kts | 297° |
| 2026-05-09 08:30 | 40.62680 | -73.72206 | 748 ft | 165 kts | 298° |
| 2026-05-09 08:31 | 40.63265 | -73.73478 | 535 ft | 164 kts | 300° |
| 2026-05-09 08:31 | 40.63851 | -73.74779 | 301 ft | 165 kts | 301° |
| 2026-05-09 08:31 | 40.64409 | -73.76006 | 66 ft | 168 kts | 302° |
| 2026-05-09 08:31 | 40.64973 | -73.77249 | 27 ft | 133 kts | 301° |
| 2026-05-09 08:32 | 40.65292 | -73.77953 | 31 ft | 46 kts | 300° |
| 2026-05-09 08:32 | 40.65398 | -73.78189 | 27 ft | 35 kts | 301° |
| 2026-05-09 08:32 | 40.65378 | -73.78395 | 26 ft | 1 kts | 210° |
| 2026-05-09 08:33 | 40.65370 | -73.78397 | 26 ft | 1 kts | 192° |
| 2026-05-09 08:33 | 40.65362 | -73.78392 | 31 ft | 2 kts | 161° |
| 2026-05-09 08:33 | 40.65350 | -73.78368 | 32 ft | 5 kts | 119° |
| 2026-05-09 08:33 | 40.65323 | -73.78305 | 26 ft | 11 kts | 120° |
| 2026-05-09 08:34 | 40.65278 | -73.78204 | 26 ft | 14 kts | 120° |
| 2026-05-09 08:34 | 40.65229 | -73.78096 | 31 ft | 13 kts | 122° |
| 2026-05-09 08:34 | 40.65180 | -73.77993 | 31 ft | 13 kts | 121° |
| 2026-05-09 08:34 | 40.65135 | -73.77887 | 31 ft | 13 kts | 119° |
| 2026-05-09 08:35 | 40.65088 | -73.77781 | 31 ft | 14 kts | 122° |
| 2026-05-09 08:35 | 40.65038 | -73.77675 | 30 ft | 13 kts | 121° |
| 2026-05-09 08:35 | 40.64991 | -73.77570 | 30 ft | 13 kts | 121° |
| 2026-05-09 08:35 | 40.64954 | -73.77514 | 30 ft | 5 kts | 152° |
| 2026-05-09 08:36 | 40.64941 | -73.77515 | 30 ft | 2 kts | 190° |
| 2026-05-09 08:36 | 40.64917 | -73.77533 | 28 ft | 6 kts | 212° |
| 2026-05-09 08:36 | 40.64863 | -73.77586 | 29 ft | 11 kts | 212° |
| 2026-05-09 08:36 | 40.64828 | -73.77587 | 30 ft | 3 kts | 155° |
| 2026-05-09 08:37 | 40.64815 | -73.77567 | 29 ft | 6 kts | 130° |
| 2026-05-09 08:37 | 40.64778 | -73.77496 | 31 ft | 11 kts | 122° |
| 2026-05-09 08:37 | 40.64735 | -73.77416 | 31 ft | 9 kts | 139° |
| 2026-05-09 08:37 | 40.64687 | -73.77404 | 28 ft | 7 kts | 180° |
| 2026-05-09 08:38 | 40.64653 | -73.77404 | 30 ft | 4 kts | 180° |
| 2026-05-09 08:38 | 40.64642 | -73.77404 | 30 ft | 0 kts | 180° |